Portada
METAR-TAF:

METAR-TAF

Aeroports :

Pattani, Tailàndia

latitud: 06-47-08N, longitud: 101-09-13E, altitud: 2 m

METAR: manca

Hora: 06:30 (23:30 UTC)

Pronòstic

L'informe es va fer fa 6 hores i 30 minuts, a les 17:00 UTC
Pronòstic vàlid del 03 a les 18 UTC al 04 a les 18 UTC
Vent 3 kt del Sud
Visibilitat 10 km o més
Escasses núvols a una alçada de 2000 ft
Evolucionant progressivament
l' 04 a les 04 UTC al 04 a les 06 UTC
Vent 10 kt del Est
Evolucionant progressivament
l' 04 a les 14 UTC al 04 a les 16 UTC
Vent 3 kt del Sud/Sud-Est

TAF: VTSK 031700Z 0318/0418 18003KT 9999 FEW020 BECMG 0404/0406 09010KT BECMG 0414/0416 16003KT

Observacions i pronòstics meteorològics de més de 4000 aeroports (METAR i TAF).

Les estacions disponibles són els punts grocs i vermells al mapa.

Posi el ratolí al punt desitjat per veure el nom de l'estació.

Feu clic per veure les observacions i els pronòstics meteorològics.

Per canviar el mapa: feu clic els botons verds amb una creu de color negre per apropar; al botó verd amb un guió per allunyar la imatge; o en les fletxes verdes per a mapes adjacents.


METAR-TAF: